メリダ の空港の天気 - METARとTAF

マヌエル・クレセンシオ・レホン国際空港 ( MMMD / MID ) - メキシコ ユカタン州メリダ
飛行場実況気象(Metar)
観測時間07/20 06:44 CDT (07/20 11:44 UTC)
風向・風速静穏 0m/s
視程10km以上
天気現象
少しの雲 雲底高度 9140m
気温25℃
湿度89%
気圧1014.7hPa
METARMMMD 201144Z 00000KT 7SM FEW300 25/23 A2996 RMK SLP147 53001 959 8/008
過去の天気等 Google飛行場航空写真 Wunderground天気予報

過去48時間のMETAR

飛行場予報(TAF)
発表時間: 7/20 05:58 CDT (7/20 10:58 UTC)
予報対象時間: 20日7時 CDT ~ 21日13時 CDT
風向・風速東北東 3m/s
視程10km以上
なし
20日13時 CDT から
風向・風速東北東 7m/s
視程10km以上
全天の8割程度の雲 雲底高度 610m
全天の8割程度の雲 雲底高度 7620m
20日19時 CDT ~ 20日23時 CDT に一時的に
風向・風速東南東 6m/s 瞬間風速 13m/s
視程4830m
天気現象雷雨
全天を覆う積乱雲 雲底高度 460m
21日2時 CDT から
風向・風速北東 5m/s
視程10km以上
全天の4割程度の雲 雲底高度 610m
全天の4割程度の雲 雲底高度 7620m
21日12時 CDT から
風向・風速東北東 7m/s
視程10km以上
全天の8割程度の雲 雲底高度 610m
全天の8割程度の雲 雲底高度 7620m
TAF MMMD 201058Z 2012/2118 06005KT P6SM SKC TX35/2019Z TN24/2012Z
FM201800 06014KT P6SM BKN020 BKN250
TEMPO 2100/2104 12012G25KT 3SM TSRA OVC015CB
FM210700 05010KT P6SM SCT020 SCT250
FM211700 06014KT P6SM BKN020 BKN250